sensor_id;sensor_type;location;lat;lon;timestamp;P1;durP1;ratioP1;P2;durP2;ratioP2
8435;SDS011;4255;48.730;9.156;2022-09-01T00:01:03;40.57;;;32.90;;
8435;SDS011;4255;48.730;9.156;2022-09-01T00:03:32;46.57;;;34.07;;
8435;SDS011;4255;48.730;9.156;2022-09-01T00:05:59;41.30;;;36.17;;
8435;SDS011;4255;48.730;9.156;2022-09-01T00:08:24;52.10;;;35.17;;
8435;SDS011;4255;48.730;9.156;2022-09-01T00:10:50;50.90;;;35.17;;
8435;SDS011;4255;48.730;9.156;2022-09-01T00:13:16;51.20;;;37.40;;
8435;SDS011;4255;48.730;9.156;2022-09-01T00:15:41;48.47;;;35.50;;
8435;SDS011;4255;48.730;9.156;2022-09-01T00:18:07;44.73;;;33.80;;
8435;SDS011;4255;48.730;9.156;2022-09-01T00:20:34;51.73;;;37.63;;
8435;SDS011;4255;48.730;9.156;2022-09-01T00:23:00;47.13;;;35.07;;
8435;SDS011;4255;48.730;9.156;2022-09-01T00:25:26;43.40;;;33.80;;
8435;SDS011;4255;48.730;9.156;2022-09-01T00:27:53;51.37;;;37.07;;
8435;SDS011;4255;48.730;9.156;2022-09-01T00:30:23;45.53;;;35.50;;
8435;SDS011;4255;48.730;9.156;2022-09-01T00:32:49;52.73;;;33.10;;
8435;SDS011;4255;48.730;9.156;2022-09-01T00:35:15;48.43;;;32.70;;
8435;SDS011;4255;48.730;9.156;2022-09-01T00:37:42;47.97;;;33.27;;
8435;SDS011;4255;48.730;9.156;2022-09-01T00:40:08;47.70;;;34.00;;
8435;SDS011;4255;48.730;9.156;2022-09-01T00:42:37;39.00;;;30.03;;
8435;SDS011;4255;48.730;9.156;2022-09-01T00:45:04;38.97;;;29.20;;
8435;SDS011;4255;48.730;9.156;2022-09-01T00:47:30;51.43;;;32.17;;
8435;SDS011;4255;48.730;9.156;2022-09-01T00:49:56;35.30;;;29.20;;
8435;SDS011;4255;48.730;9.156;2022-09-01T00:52:42;36.50;;;28.90;;
8435;SDS011;4255;48.730;9.156;2022-09-01T00:55:14;42.17;;;31.80;;
8435;SDS011;4255;48.730;9.156;2022-09-01T00:57:42;33.93;;;27.87;;
8435;SDS011;4255;48.730;9.156;2022-09-01T01:00:13;38.57;;;30.00;;
8435;SDS011;4255;48.730;9.156;2022-09-01T01:02:43;37.33;;;28.87;;
8435;SDS011;4255;48.730;9.156;2022-09-01T01:05:09;36.63;;;29.40;;
8435;SDS011;4255;48.730;9.156;2022-09-01T01:07:36;36.93;;;30.67;;
8435;SDS011;4255;48.730;9.156;2022-09-01T01:10:09;37.20;;;30.57;;
8435;SDS011;4255;48.730;9.156;2022-09-01T01:12:37;32.20;;;28.43;;
8435;SDS011;4255;48.730;9.156;2022-09-01T01:15:05;33.90;;;28.00;;
8435;SDS011;4255;48.730;9.156;2022-09-01T01:17:32;37.60;;;28.83;;
8435;SDS011;4255;48.730;9.156;2022-09-01T01:19:58;36.00;;;29.20;;
8435;SDS011;4255;48.730;9.156;2022-09-01T01:28:28;34.50;;;26.90;;
8435;SDS011;4255;48.730;9.156;2022-09-01T01:30:59;39.40;;;27.97;;
8435;SDS011;4255;48.730;9.156;2022-09-01T01:33:30;36.17;;;28.20;;
8435;SDS011;4255;48.730;9.156;2022-09-01T01:36:06;36.43;;;29.83;;
8435;SDS011;4255;48.730;9.156;2022-09-01T01:38:37;35.83;;;29.17;;
8435;SDS011;4255;48.730;9.156;2022-09-01T01:41:05;44.03;;;30.23;;
8435;SDS011;4255;48.730;9.156;2022-09-01T01:43:31;36.17;;;29.63;;
8435;SDS011;4255;48.730;9.156;2022-09-01T01:45:57;35.10;;;27.70;;
8435;SDS011;4255;48.730;9.156;2022-09-01T01:48:27;35.47;;;26.53;;
8435;SDS011;4255;48.730;9.156;2022-09-01T01:50:53;38.20;;;29.50;;
8435;SDS011;4255;48.730;9.156;2022-09-01T01:53:22;31.23;;;25.00;;
8435;SDS011;4255;48.730;9.156;2022-09-01T01:55:48;38.33;;;30.07;;
8435;SDS011;4255;48.730;9.156;2022-09-01T01:58:14;30.97;;;25.40;;
8435;SDS011;4255;48.730;9.156;2022-09-01T02:00:43;38.57;;;29.37;;
8435;SDS011;4255;48.730;9.156;2022-09-01T02:03:10;38.93;;;30.37;;
8435;SDS011;4255;48.730;9.156;2022-09-01T02:05:43;38.10;;;30.17;;
8435;SDS011;4255;48.730;9.156;2022-09-01T02:08:14;40.80;;;30.73;;
8435;SDS011;4255;48.730;9.156;2022-09-01T02:10:46;44.60;;;32.80;;
8435;SDS011;4255;48.730;9.156;2022-09-01T02:13:15;44.23;;;31.97;;
8435;SDS011;4255;48.730;9.156;2022-09-01T02:15:47;43.20;;;32.37;;
8435;SDS011;4255;48.730;9.156;2022-09-01T02:18:22;49.07;;;31.20;;
8435;SDS011;4255;48.730;9.156;2022-09-01T02:20:55;43.40;;;33.90;;
8435;SDS011;4255;48.730;9.156;2022-09-01T02:23:23;42.10;;;31.97;;
8435;SDS011;4255;48.730;9.156;2022-09-01T02:25:50;41.97;;;31.40;;
8435;SDS011;4255;48.730;9.156;2022-09-01T02:28:19;45.77;;;32.87;;
8435;SDS011;4255;48.730;9.156;2022-09-01T02:30:46;47.97;;;33.67;;
8435;SDS011;4255;48.730;9.156;2022-09-01T02:33:24;48.03;;;34.23;;
8435;SDS011;4255;48.730;9.156;2022-09-01T02:35:52;44.33;;;32.60;;
8435;SDS011;4255;48.730;9.156;2022-09-01T02:38:19;53.43;;;33.73;;
8435;SDS011;4255;48.730;9.156;2022-09-01T02:40:50;48.00;;;34.80;;
8435;SDS011;4255;48.730;9.156;2022-09-01T02:43:18;51.83;;;34.57;;
8435;SDS011;4255;48.730;9.156;2022-09-01T02:45:45;46.63;;;32.63;;
8435;SDS011;4255;48.730;9.156;2022-09-01T02:48:19;51.53;;;35.13;;
8435;SDS011;4255;48.730;9.156;2022-09-01T02:50:48;48.33;;;35.07;;
8435;SDS011;4255;48.730;9.156;2022-09-01T02:53:15;51.20;;;35.67;;
8435;SDS011;4255;48.730;9.156;2022-09-01T02:55:41;54.63;;;36.40;;
8435;SDS011;4255;48.730;9.156;2022-09-01T02:58:07;49.30;;;35.53;;
8435;SDS011;4255;48.730;9.156;2022-09-01T03:00:40;50.13;;;35.30;;
8435;SDS011;4255;48.730;9.156;2022-09-01T03:03:07;49.67;;;34.97;;
8435;SDS011;4255;48.730;9.156;2022-09-01T03:05:34;53.63;;;35.53;;
8435;SDS011;4255;48.730;9.156;2022-09-01T03:08:04;53.60;;;35.10;;
8435;SDS011;4255;48.730;9.156;2022-09-01T03:10:33;53.43;;;34.90;;
8435;SDS011;4255;48.730;9.156;2022-09-01T03:13:03;53.87;;;37.70;;
8435;SDS011;4255;48.730;9.156;2022-09-01T03:15:30;56.50;;;37.60;;
8435;SDS011;4255;48.730;9.156;2022-09-01T03:17:58;49.67;;;34.63;;
8435;SDS011;4255;48.730;9.156;2022-09-01T03:20:25;59.23;;;38.90;;
8435;SDS011;4255;48.730;9.156;2022-09-01T03:22:52;56.00;;;37.77;;
8435;SDS011;4255;48.730;9.156;2022-09-01T03:25:17;56.00;;;39.70;;
8435;SDS011;4255;48.730;9.156;2022-09-01T03:27:44;53.37;;;36.63;;
8435;SDS011;4255;48.730;9.156;2022-09-01T03:30:10;49.27;;;36.17;;
8435;SDS011;4255;48.730;9.156;2022-09-01T03:32:36;51.03;;;33.80;;
8435;SDS011;4255;48.730;9.156;2022-09-01T03:35:02;62.17;;;40.37;;
8435;SDS011;4255;48.730;9.156;2022-09-01T03:37:28;57.53;;;37.80;;
8435;SDS011;4255;48.730;9.156;2022-09-01T03:39:54;56.50;;;37.50;;
8435;SDS011;4255;48.730;9.156;2022-09-01T03:42:21;61.80;;;41.03;;
8435;SDS011;4255;48.730;9.156;2022-09-01T03:44:50;60.63;;;39.27;;
8435;SDS011;4255;48.730;9.156;2022-09-01T03:47:17;53.03;;;37.40;;
8435;SDS011;4255;48.730;9.156;2022-09-01T03:49:45;61.23;;;37.03;;
8435;SDS011;4255;48.730;9.156;2022-09-01T03:52:13;51.00;;;36.50;;
8435;SDS011;4255;48.730;9.156;2022-09-01T03:54:39;51.47;;;35.00;;
8435;SDS011;4255;48.730;9.156;2022-09-01T03:57:05;51.03;;;35.00;;
8435;SDS011;4255;48.730;9.156;2022-09-01T03:59:33;56.30;;;35.80;;
8435;SDS011;4255;48.730;9.156;2022-09-01T04:01:59;51.20;;;35.30;;
8435;SDS011;4255;48.730;9.156;2022-09-01T04:04:26;59.37;;;39.33;;
8435;SDS011;4255;48.730;9.156;2022-09-01T04:06:55;62.60;;;40.57;;
8435;SDS011;4255;48.730;9.156;2022-09-01T04:09:21;63.40;;;38.57;;
8435;SDS011;4255;48.730;9.156;2022-09-01T04:11:46;63.00;;;39.43;;
8435;SDS011;4255;48.730;9.156;2022-09-01T04:14:12;70.50;;;41.70;;
8435;SDS011;4255;48.730;9.156;2022-09-01T04:16:38;64.00;;;43.17;;
8435;SDS011;4255;48.730;9.156;2022-09-01T04:19:23;66.07;;;40.20;;
8435;SDS011;4255;48.730;9.156;2022-09-01T04:21:51;62.30;;;39.33;;
8435;SDS011;4255;48.730;9.156;2022-09-01T04:24:20;61.43;;;39.47;;
8435;SDS011;4255;48.730;9.156;2022-09-01T04:26:48;57.10;;;37.17;;
8435;SDS011;4255;48.730;9.156;2022-09-01T04:29:16;51.30;;;36.47;;
8435;SDS011;4255;48.730;9.156;2022-09-01T04:31:52;51.70;;;38.00;;
8435;SDS011;4255;48.730;9.156;2022-09-01T04:34:19;57.67;;;36.70;;
8435;SDS011;4255;48.730;9.156;2022-09-01T04:36:46;49.37;;;35.43;;
8435;SDS011;4255;48.730;9.156;2022-09-01T04:39:12;48.47;;;35.00;;
8435;SDS011;4255;48.730;9.156;2022-09-01T04:41:39;47.23;;;33.50;;
8435;SDS011;4255;48.730;9.156;2022-09-01T04:44:06;58.27;;;37.63;;
8435;SDS011;4255;48.730;9.156;2022-09-01T04:46:35;55.43;;;36.30;;
8435;SDS011;4255;48.730;9.156;2022-09-01T04:49:06;52.57;;;35.57;;
8435;SDS011;4255;48.730;9.156;2022-09-01T04:51:39;58.83;;;38.17;;
8435;SDS011;4255;48.730;9.156;2022-09-01T04:54:07;57.63;;;39.00;;
8435;SDS011;4255;48.730;9.156;2022-09-01T04:56:38;61.87;;;41.03;;
8435;SDS011;4255;48.730;9.156;2022-09-01T04:59:05;62.03;;;40.70;;
8435;SDS011;4255;48.730;9.156;2022-09-01T05:01:32;58.53;;;39.20;;
8435;SDS011;4255;48.730;9.156;2022-09-01T05:04:09;64.90;;;40.67;;
8435;SDS011;4255;48.730;9.156;2022-09-01T05:06:41;57.80;;;38.60;;
8435;SDS011;4255;48.730;9.156;2022-09-01T05:09:10;64.90;;;35.40;;
8435;SDS011;4255;48.730;9.156;2022-09-01T05:11:37;57.63;;;36.97;;
8435;SDS011;4255;48.730;9.156;2022-09-01T05:14:04;58.13;;;35.20;;
8435;SDS011;4255;48.730;9.156;2022-09-01T05:16:31;60.60;;;36.90;;
8435;SDS011;4255;48.730;9.156;2022-09-01T05:18:58;50.93;;;34.77;;
8435;SDS011;4255;48.730;9.156;2022-09-01T05:21:26;42.50;;;32.47;;
8435;SDS011;4255;48.730;9.156;2022-09-01T05:23:54;48.60;;;33.00;;
8435;SDS011;4255;48.730;9.156;2022-09-01T05:26:22;43.53;;;31.73;;
8435;SDS011;4255;48.730;9.156;2022-09-01T05:29:00;34.83;;;26.03;;
8435;SDS011;4255;48.730;9.156;2022-09-01T05:31:28;42.77;;;29.30;;
8435;SDS011;4255;48.730;9.156;2022-09-01T05:33:59;39.33;;;31.20;;
8435;SDS011;4255;48.730;9.156;2022-09-01T05:36:27;39.97;;;27.23;;
8435;SDS011;4255;48.730;9.156;2022-09-01T05:38:55;33.60;;;27.30;;
8435;SDS011;4255;48.730;9.156;2022-09-01T05:41:21;31.60;;;25.70;;
8435;SDS011;4255;48.730;9.156;2022-09-01T05:43:48;33.87;;;26.53;;
8435;SDS011;4255;48.730;9.156;2022-09-01T05:46:17;30.33;;;23.70;;
8435;SDS011;4255;48.730;9.156;2022-09-01T05:48:45;33.40;;;25.57;;
8435;SDS011;4255;48.730;9.156;2022-09-01T05:51:13;34.80;;;27.17;;
8435;SDS011;4255;48.730;9.156;2022-09-01T05:53:42;35.13;;;25.27;;
8435;SDS011;4255;48.730;9.156;2022-09-01T05:56:08;35.93;;;26.37;;
8435;SDS011;4255;48.730;9.156;2022-09-01T05:58:37;34.90;;;25.80;;
8435;SDS011;4255;48.730;9.156;2022-09-01T06:01:04;29.17;;;23.90;;
8435;SDS011;4255;48.730;9.156;2022-09-01T06:03:31;30.37;;;24.40;;
8435;SDS011;4255;48.730;9.156;2022-09-01T06:06:03;28.20;;;24.47;;
8435;SDS011;4255;48.730;9.156;2022-09-01T06:08:33;31.73;;;25.30;;
8435;SDS011;4255;48.730;9.156;2022-09-01T06:11:00;30.20;;;24.17;;
8435;SDS011;4255;48.730;9.156;2022-09-01T06:13:28;31.10;;;25.47;;
8435;SDS011;4255;48.730;9.156;2022-09-01T06:15:53;34.10;;;25.77;;
8435;SDS011;4255;48.730;9.156;2022-09-01T06:18:22;34.33;;;27.20;;
8435;SDS011;4255;48.730;9.156;2022-09-01T06:20:48;33.97;;;26.93;;
8435;SDS011;4255;48.730;9.156;2022-09-01T06:23:14;33.77;;;26.83;;
8435;SDS011;4255;48.730;9.156;2022-09-01T06:25:41;36.90;;;29.07;;
8435;SDS011;4255;48.730;9.156;2022-09-01T06:28:13;34.00;;;25.97;;
8435;SDS011;4255;48.730;9.156;2022-09-01T06:30:40;40.87;;;28.13;;
8435;SDS011;4255;48.730;9.156;2022-09-01T06:33:08;33.30;;;26.80;;
8435;SDS011;4255;48.730;9.156;2022-09-01T06:35:37;35.30;;;25.77;;
8435;SDS011;4255;48.730;9.156;2022-09-01T06:38:09;31.40;;;24.57;;
8435;SDS011;4255;48.730;9.156;2022-09-01T06:40:36;27.63;;;23.80;;
8435;SDS011;4255;48.730;9.156;2022-09-01T06:43:03;30.50;;;21.43;;
8435;SDS011;4255;48.730;9.156;2022-09-01T06:45:32;25.57;;;20.43;;
8435;SDS011;4255;48.730;9.156;2022-09-01T06:48:04;29.27;;;20.73;;
8435;SDS011;4255;48.730;9.156;2022-09-01T06:50:31;23.20;;;19.90;;
8435;SDS011;4255;48.730;9.156;2022-09-01T06:52:56;23.60;;;18.57;;
8435;SDS011;4255;48.730;9.156;2022-09-01T06:55:35;25.33;;;20.27;;
8435;SDS011;4255;48.730;9.156;2022-09-01T06:58:06;20.87;;;18.70;;
8435;SDS011;4255;48.730;9.156;2022-09-01T07:00:33;25.20;;;18.10;;
8435;SDS011;4255;48.730;9.156;2022-09-01T07:03:09;20.93;;;18.43;;
8435;SDS011;4255;48.730;9.156;2022-09-01T07:05:39;23.43;;;18.10;;
8435;SDS011;4255;48.730;9.156;2022-09-01T07:08:07;23.70;;;18.47;;
8435;SDS011;4255;48.730;9.156;2022-09-01T07:10:41;21.37;;;18.30;;
8435;SDS011;4255;48.730;9.156;2022-09-01T07:13:10;20.70;;;17.63;;
8435;SDS011;4255;48.730;9.156;2022-09-01T07:15:42;20.27;;;17.43;;
8435;SDS011;4255;48.730;9.156;2022-09-01T07:18:09;18.33;;;16.20;;
8435;SDS011;4255;48.730;9.156;2022-09-01T07:20:39;18.10;;;15.27;;
8435;SDS011;4255;48.730;9.156;2022-09-01T07:23:06;17.70;;;15.33;;
8435;SDS011;4255;48.730;9.156;2022-09-01T07:25:33;21.47;;;16.20;;
8435;SDS011;4255;48.730;9.156;2022-09-01T07:28:03;15.87;;;14.20;;
8435;SDS011;4255;48.730;9.156;2022-09-01T07:30:29;18.17;;;13.90;;
8435;SDS011;4255;48.730;9.156;2022-09-01T07:32:57;16.23;;;14.53;;
8435;SDS011;4255;48.730;9.156;2022-09-01T07:35:23;13.07;;;11.40;;
8435;SDS011;4255;48.730;9.156;2022-09-01T07:37:48;14.33;;;12.83;;
8435;SDS011;4255;48.730;9.156;2022-09-01T07:40:17;16.40;;;11.87;;
8435;SDS011;4255;48.730;9.156;2022-09-01T07:42:46;13.60;;;12.20;;
8435;SDS011;4255;48.730;9.156;2022-09-01T07:45:13;18.20;;;14.67;;
8435;SDS011;4255;48.730;9.156;2022-09-01T07:47:41;14.13;;;12.63;;
8435;SDS011;4255;48.730;9.156;2022-09-01T07:50:09;12.93;;;11.60;;
8435;SDS011;4255;48.730;9.156;2022-09-01T07:52:37;13.93;;;12.43;;
8435;SDS011;4255;48.730;9.156;2022-09-01T07:55:10;14.90;;;13.40;;
8435;SDS011;4255;48.730;9.156;2022-09-01T07:57:41;14.77;;;13.20;;
8435;SDS011;4255;48.730;9.156;2022-09-01T08:00:10;15.77;;;14.03;;
8435;SDS011;4255;48.730;9.156;2022-09-01T08:02:37;15.53;;;13.10;;
8435;SDS011;4255;48.730;9.156;2022-09-01T08:05:07;15.30;;;13.80;;
8435;SDS011;4255;48.730;9.156;2022-09-01T08:07:36;14.63;;;13.10;;
8435;SDS011;4255;48.730;9.156;2022-09-01T08:10:03;16.10;;;14.50;;
8435;SDS011;4255;48.730;9.156;2022-09-01T08:12:30;14.90;;;13.30;;
8435;SDS011;4255;48.730;9.156;2022-09-01T08:14:56;16.87;;;13.47;;
8435;SDS011;4255;48.730;9.156;2022-09-01T08:17:22;17.50;;;13.33;;
8435;SDS011;4255;48.730;9.156;2022-09-01T08:19:47;17.70;;;13.53;;
8435;SDS011;4255;48.730;9.156;2022-09-01T08:22:14;15.53;;;13.83;;
8435;SDS011;4255;48.730;9.156;2022-09-01T08:24:40;15.33;;;13.83;;
8435;SDS011;4255;48.730;9.156;2022-09-01T08:27:06;15.93;;;14.23;;
8435;SDS011;4255;48.730;9.156;2022-09-01T08:29:32;16.23;;;14.53;;
8435;SDS011;4255;48.730;9.156;2022-09-01T08:31:58;15.83;;;14.20;;
8435;SDS011;4255;48.730;9.156;2022-09-01T08:34:26;19.23;;;15.37;;
8435;SDS011;4255;48.730;9.156;2022-09-01T08:36:52;17.07;;;13.67;;
8435;SDS011;4255;48.730;9.156;2022-09-01T08:39:18;16.60;;;13.80;;
8435;SDS011;4255;48.730;9.156;2022-09-01T08:41:46;16.47;;;14.73;;
8435;SDS011;4255;48.730;9.156;2022-09-01T08:47:08;19.10;;;14.83;;
8435;SDS011;4255;48.730;9.156;2022-09-01T08:49:36;18.37;;;15.70;;
8435;SDS011;4255;48.730;9.156;2022-09-01T08:55:06;14.80;;;13.20;;
8435;SDS011;4255;48.730;9.156;2022-09-01T08:57:50;13.53;;;12.23;;
8435;SDS011;4255;48.730;9.156;2022-09-01T09:00:17;12.60;;;11.30;;
8435;SDS011;4255;48.730;9.156;2022-09-01T09:03:03;12.30;;;11.00;;
8435;SDS011;4255;48.730;9.156;2022-09-01T09:16:47;12.63;;;10.17;;
8435;SDS011;4255;48.730;9.156;2022-09-01T09:22:06;11.50;;;10.40;;
8435;SDS011;4255;48.730;9.156;2022-09-01T09:24:43;11.17;;;10.03;;
8435;SDS011;4255;48.730;9.156;2022-09-01T09:30:23;11.60;;;9.97;;
8435;SDS011;4255;48.730;9.156;2022-09-01T09:35:32;9.17;;;8.27;;
8435;SDS011;4255;48.730;9.156;2022-09-01T09:43:45;9.67;;;8.60;;
8435;SDS011;4255;48.730;9.156;2022-09-01T09:46:20;10.33;;;9.37;;
8435;SDS011;4255;48.730;9.156;2022-09-01T09:48:51;11.37;;;10.17;;
8435;SDS011;4255;48.730;9.156;2022-09-01T09:51:30;13.60;;;10.37;;
8435;SDS011;4255;48.730;9.156;2022-09-01T09:54:09;9.60;;;8.63;;
8435;SDS011;4255;48.730;9.156;2022-09-01T09:59:40;9.83;;;8.80;;
8435;SDS011;4255;48.730;9.156;2022-09-01T10:04:56;9.03;;;8.23;;
8435;SDS011;4255;48.730;9.156;2022-09-01T10:07:42;11.30;;;10.17;;
8435;SDS011;4255;48.730;9.156;2022-09-01T10:10:27;8.67;;;7.70;;
8435;SDS011;4255;48.730;9.156;2022-09-01T10:13:14;10.37;;;8.70;;
8435;SDS011;4255;48.730;9.156;2022-09-01T10:15:46;11.10;;;8.17;;
8435;SDS011;4255;48.730;9.156;2022-09-01T10:18:15;8.87;;;8.00;;
8435;SDS011;4255;48.730;9.156;2022-09-01T10:20:54;10.53;;;8.77;;
8435;SDS011;4255;48.730;9.156;2022-09-01T10:23:39;9.63;;;8.57;;
8435;SDS011;4255;48.730;9.156;2022-09-01T10:28:51;7.60;;;6.90;;
8435;SDS011;4255;48.730;9.156;2022-09-01T10:31:25;6.67;;;6.07;;
8435;SDS011;4255;48.730;9.156;2022-09-01T10:33:52;6.13;;;5.73;;
8435;SDS011;4255;48.730;9.156;2022-09-01T10:36:18;7.10;;;6.10;;
8435;SDS011;4255;48.730;9.156;2022-09-01T10:38:45;6.00;;;5.57;;
8435;SDS011;4255;48.730;9.156;2022-09-01T10:41:41;6.63;;;5.23;;
8435;SDS011;4255;48.730;9.156;2022-09-01T10:44:22;5.67;;;5.17;;
8435;SDS011;4255;48.730;9.156;2022-09-01T10:57:47;6.03;;;5.53;;
8435;SDS011;4255;48.730;9.156;2022-09-01T11:11:04;6.37;;;5.83;;
8435;SDS011;4255;48.730;9.156;2022-09-01T11:13:47;5.83;;;5.23;;
8435;SDS011;4255;48.730;9.156;2022-09-01T11:16:29;6.03;;;5.43;;
8435;SDS011;4255;48.730;9.156;2022-09-01T11:25:08;5.60;;;4.97;;
8435;SDS011;4255;48.730;9.156;2022-09-01T11:30:14;5.50;;;5.10;;
8435;SDS011;4255;48.730;9.156;2022-09-01T11:32:45;5.10;;;4.70;;
8435;SDS011;4255;48.730;9.156;2022-09-01T11:35:16;6.30;;;5.90;;
8435;SDS011;4255;48.730;9.156;2022-09-01T11:37:48;4.87;;;4.57;;
8435;SDS011;4255;48.730;9.156;2022-09-01T11:40:23;5.23;;;4.83;;
8435;SDS011;4255;48.730;9.156;2022-09-01T11:42:52;6.80;;;5.70;;
8435;SDS011;4255;48.730;9.156;2022-09-01T11:45:22;6.50;;;6.00;;
8435;SDS011;4255;48.730;9.156;2022-09-01T11:47:53;6.33;;;5.80;;
8435;SDS011;4255;48.730;9.156;2022-09-01T11:50:32;5.60;;;5.17;;
8435;SDS011;4255;48.730;9.156;2022-09-01T11:53:01;6.77;;;6.00;;
8435;SDS011;4255;48.730;9.156;2022-09-01T11:58:00;5.37;;;4.90;;
8435;SDS011;4255;48.730;9.156;2022-09-01T12:00:30;6.73;;;6.10;;
8435;SDS011;4255;48.730;9.156;2022-09-01T12:03:02;6.50;;;6.00;;
8435;SDS011;4255;48.730;9.156;2022-09-01T12:05:53;6.70;;;6.20;;
8435;SDS011;4255;48.730;9.156;2022-09-01T12:08:26;6.20;;;5.70;;
8435;SDS011;4255;48.730;9.156;2022-09-01T12:11:02;7.40;;;5.90;;
8435;SDS011;4255;48.730;9.156;2022-09-01T12:13:29;5.83;;;5.33;;
8435;SDS011;4255;48.730;9.156;2022-09-01T12:15:59;6.00;;;5.60;;
8435;SDS011;4255;48.730;9.156;2022-09-01T12:18:28;5.53;;;5.13;;
8435;SDS011;4255;48.730;9.156;2022-09-01T12:20:56;7.00;;;6.40;;
8435;SDS011;4255;48.730;9.156;2022-09-01T12:25:54;5.63;;;5.13;;
8435;SDS011;4255;48.730;9.156;2022-09-01T12:28:23;5.70;;;5.30;;
8435;SDS011;4255;48.730;9.156;2022-09-01T12:30:51;6.47;;;6.00;;
8435;SDS011;4255;48.730;9.156;2022-09-01T12:33:19;6.70;;;6.20;;
8435;SDS011;4255;48.730;9.156;2022-09-01T12:35:45;5.73;;;5.33;;
8435;SDS011;4255;48.730;9.156;2022-09-01T12:38:30;5.60;;;4.93;;
8435;SDS011;4255;48.730;9.156;2022-09-01T12:40:56;4.50;;;4.20;;
8435;SDS011;4255;48.730;9.156;2022-09-01T12:43:29;4.70;;;4.30;;
8435;SDS011;4255;48.730;9.156;2022-09-01T12:45:58;4.73;;;4.43;;
8435;SDS011;4255;48.730;9.156;2022-09-01T12:50:59;9.70;;;5.17;;
8435;SDS011;4255;48.730;9.156;2022-09-01T12:53:27;5.10;;;4.80;;
8435;SDS011;4255;48.730;9.156;2022-09-01T12:58:25;8.93;;;7.20;;
8435;SDS011;4255;48.730;9.156;2022-09-01T13:03:29;7.00;;;6.40;;
8435;SDS011;4255;48.730;9.156;2022-09-01T13:05:56;6.43;;;5.83;;
8435;SDS011;4255;48.730;9.156;2022-09-01T13:08:25;6.70;;;5.97;;
8435;SDS011;4255;48.730;9.156;2022-09-01T13:10:54;9.10;;;5.87;;
8435;SDS011;4255;48.730;9.156;2022-09-01T13:13:27;6.13;;;5.53;;
8435;SDS011;4255;48.730;9.156;2022-09-01T13:15:54;6.40;;;5.80;;
8435;SDS011;4255;48.730;9.156;2022-09-01T13:18:24;6.13;;;5.50;;
8435;SDS011;4255;48.730;9.156;2022-09-01T13:20:51;5.13;;;4.83;;
8435;SDS011;4255;48.730;9.156;2022-09-01T13:23:17;5.43;;;5.10;;
8435;SDS011;4255;48.730;9.156;2022-09-01T13:25:44;5.83;;;5.43;;
8435;SDS011;4255;48.730;9.156;2022-09-01T13:28:11;5.07;;;4.57;;
8435;SDS011;4255;48.730;9.156;2022-09-01T13:30:37;4.97;;;4.60;;
8435;SDS011;4255;48.730;9.156;2022-09-01T13:33:03;4.47;;;4.17;;
8435;SDS011;4255;48.730;9.156;2022-09-01T13:35:29;4.60;;;4.30;;
8435;SDS011;4255;48.730;9.156;2022-09-01T13:37:55;5.27;;;4.80;;
8435;SDS011;4255;48.730;9.156;2022-09-01T13:40:21;4.90;;;4.50;;
8435;SDS011;4255;48.730;9.156;2022-09-01T13:42:48;5.20;;;4.80;;
8435;SDS011;4255;48.730;9.156;2022-09-01T13:45:16;5.50;;;5.10;;
8435;SDS011;4255;48.730;9.156;2022-09-01T13:47:44;5.50;;;5.00;;
8435;SDS011;4255;48.730;9.156;2022-09-01T13:50:12;5.90;;;5.37;;
8435;SDS011;4255;48.730;9.156;2022-09-01T13:52:40;5.60;;;5.20;;
8435;SDS011;4255;48.730;9.156;2022-09-01T13:55:30;5.33;;;4.93;;
8435;SDS011;4255;48.730;9.156;2022-09-01T13:57:55;5.83;;;5.20;;
8435;SDS011;4255;48.730;9.156;2022-09-01T14:00:23;6.67;;;6.00;;
8435;SDS011;4255;48.730;9.156;2022-09-01T14:02:53;6.87;;;6.27;;
8435;SDS011;4255;48.730;9.156;2022-09-01T14:07:48;5.53;;;5.13;;
8435;SDS011;4255;48.730;9.156;2022-09-01T14:10:14;5.83;;;5.33;;
8435;SDS011;4255;48.730;9.156;2022-09-01T14:12:41;5.43;;;5.03;;
8435;SDS011;4255;48.730;9.156;2022-09-01T14:15:08;5.90;;;5.50;;
8435;SDS011;4255;48.730;9.156;2022-09-01T14:17:35;5.67;;;5.13;;
8435;SDS011;4255;48.730;9.156;2022-09-01T14:20:04;5.50;;;5.10;;
8435;SDS011;4255;48.730;9.156;2022-09-01T14:22:32;4.90;;;4.60;;
8435;SDS011;4255;48.730;9.156;2022-09-01T14:24:58;5.23;;;4.90;;
8435;SDS011;4255;48.730;9.156;2022-09-01T14:27:24;6.13;;;5.63;;
8435;SDS011;4255;48.730;9.156;2022-09-01T14:29:50;5.77;;;5.37;;
8435;SDS011;4255;48.730;9.156;2022-09-01T14:32:17;4.80;;;4.40;;
8435;SDS011;4255;48.730;9.156;2022-09-01T14:34:46;5.00;;;4.70;;
8435;SDS011;4255;48.730;9.156;2022-09-01T14:37:12;4.50;;;4.20;;
8435;SDS011;4255;48.730;9.156;2022-09-01T14:39:40;4.67;;;4.30;;
8435;SDS011;4255;48.730;9.156;2022-09-01T14:42:06;4.50;;;4.20;;
8435;SDS011;4255;48.730;9.156;2022-09-01T14:44:37;4.80;;;4.07;;
8435;SDS011;4255;48.730;9.156;2022-09-01T14:47:03;6.83;;;6.23;;
8435;SDS011;4255;48.730;9.156;2022-09-01T14:49:32;4.50;;;4.20;;
8435;SDS011;4255;48.730;9.156;2022-09-01T14:52:01;4.43;;;4.13;;
8435;SDS011;4255;48.730;9.156;2022-09-01T14:54:29;4.67;;;4.40;;
8435;SDS011;4255;48.730;9.156;2022-09-01T14:56:55;4.43;;;4.03;;
8435;SDS011;4255;48.730;9.156;2022-09-01T14:59:21;5.90;;;5.23;;
8435;SDS011;4255;48.730;9.156;2022-09-01T15:01:46;5.57;;;4.27;;
8435;SDS011;4255;48.730;9.156;2022-09-01T15:04:12;4.07;;;3.77;;
8435;SDS011;4255;48.730;9.156;2022-09-01T15:06:38;3.50;;;3.30;;
8435;SDS011;4255;48.730;9.156;2022-09-01T15:09:03;3.90;;;3.60;;
8435;SDS011;4255;48.730;9.156;2022-09-01T15:11:29;5.40;;;5.00;;
8435;SDS011;4255;48.730;9.156;2022-09-01T15:13:55;4.40;;;4.00;;
8435;SDS011;4255;48.730;9.156;2022-09-01T15:16:22;4.07;;;3.87;;
8435;SDS011;4255;48.730;9.156;2022-09-01T15:18:49;4.53;;;4.23;;
8435;SDS011;4255;48.730;9.156;2022-09-01T15:21:17;5.27;;;4.60;;
8435;SDS011;4255;48.730;9.156;2022-09-01T15:23:44;4.50;;;4.07;;
8435;SDS011;4255;48.730;9.156;2022-09-01T15:26:09;4.27;;;4.07;;
8435;SDS011;4255;48.730;9.156;2022-09-01T15:28:35;4.03;;;3.73;;
8435;SDS011;4255;48.730;9.156;2022-09-01T15:31:01;5.70;;;4.57;;
8435;SDS011;4255;48.730;9.156;2022-09-01T15:33:27;4.30;;;3.80;;
8435;SDS011;4255;48.730;9.156;2022-09-01T15:35:53;5.27;;;4.83;;
8435;SDS011;4255;48.730;9.156;2022-09-01T15:38:18;5.03;;;4.50;;
8435;SDS011;4255;48.730;9.156;2022-09-01T15:40:44;4.67;;;4.30;;
8435;SDS011;4255;48.730;9.156;2022-09-01T15:43:11;5.13;;;4.70;;
8435;SDS011;4255;48.730;9.156;2022-09-01T15:45:36;5.03;;;4.60;;
8435;SDS011;4255;48.730;9.156;2022-09-01T15:48:03;5.23;;;4.83;;
8435;SDS011;4255;48.730;9.156;2022-09-01T15:50:28;5.20;;;4.70;;
8435;SDS011;4255;48.730;9.156;2022-09-01T15:52:55;5.10;;;4.70;;
8435;SDS011;4255;48.730;9.156;2022-09-01T15:55:29;5.80;;;5.10;;
8435;SDS011;4255;48.730;9.156;2022-09-01T15:58:01;4.60;;;4.30;;
8435;SDS011;4255;48.730;9.156;2022-09-01T16:00:28;4.40;;;4.10;;
8435;SDS011;4255;48.730;9.156;2022-09-01T16:02:54;5.70;;;4.53;;
8435;SDS011;4255;48.730;9.156;2022-09-01T16:05:22;4.80;;;4.50;;
8435;SDS011;4255;48.730;9.156;2022-09-01T16:07:49;4.63;;;4.33;;
8435;SDS011;4255;48.730;9.156;2022-09-01T16:10:16;5.63;;;4.70;;
8435;SDS011;4255;48.730;9.156;2022-09-01T16:12:42;4.67;;;4.30;;
8435;SDS011;4255;48.730;9.156;2022-09-01T16:15:11;5.20;;;4.70;;
8435;SDS011;4255;48.730;9.156;2022-09-01T16:17:46;4.80;;;4.50;;
8435;SDS011;4255;48.730;9.156;2022-09-01T16:20:33;7.93;;;7.27;;
8435;SDS011;4255;48.730;9.156;2022-09-01T16:23:11;5.83;;;5.43;;
8435;SDS011;4255;48.730;9.156;2022-09-01T16:25:44;8.37;;;5.10;;
8435;SDS011;4255;48.730;9.156;2022-09-01T16:28:21;6.27;;;5.67;;
8435;SDS011;4255;48.730;9.156;2022-09-01T16:30:51;4.90;;;4.60;;
8435;SDS011;4255;48.730;9.156;2022-09-01T16:33:21;4.87;;;4.57;;
8435;SDS011;4255;48.730;9.156;2022-09-01T16:41:18;5.00;;;4.70;;
8435;SDS011;4255;48.730;9.156;2022-09-01T16:44:13;5.47;;;5.07;;
8435;SDS011;4255;48.730;9.156;2022-09-01T16:49:47;6.03;;;5.53;;